NORTHEAST SUFFOLK  -  Winter Weather Advisory Winter Weather Advisory        NORTHERN NASSAU  -  Winter Weather Advisory Winter Weather Advisory        NORTHWEST SUFFOLK  -  Winter Weather Advisory Winter Weather Advisory        SOUTHEAST SUFFOLK  -  Winter Weather Advisory Winter Weather Advisory        SOUTHERN NASSAU  -  Winter Weather Advisory Winter Weather Advisory        SOUTHWEST SUFFOLK  -  Winter Weather Advisory Winter Weather Advisory      

Active alerts

Northern Nassau
  Details for Northern Nassau Winter Weather Advisory
Southern Nassau
  Details for Southern Nassau Winter Weather Advisory
Northwest Suffolk
  Details for Northwest Suffolk Winter Weather Advisory
Southwest Suffolk
  Details for Southwest Suffolk Winter Weather Advisory
Northeast Suffolk
  Details for Northeast Suffolk Winter Weather Advisory
Southeast Suffolk
  Details for Southeast Suffolk Winter Weather Advisory


WXM80 ListenWXM80 Stop

You find our weather info also at:

UK Metoffice

WeatherCloud

Weather Underground

Northeastern Weather Network

AWEKAS

Citizen Weather Observer Program (CWOP)

HAMweather, WeatherForYou, PWS Weather


Weather Underground History page Text

Daily Summary for February 22, 2017 Units:  English    Metric   Both
« Previous Day
Next Day »
Daily Weekly Monthly Yearly Custom
  High: Low: Average:
Temperature: 51.5 °F 41.1 °F 45.7 °F
Dew Point: 43.3 °F 36.9 °F 40 °F
Humidity: 91 % 70 % 80 %
Wind Speed: 6.3 mph 0.0 mph 1.2 mph
Wind Gust: 11.5 mph - -
Wind:- - SW
Pressure: 30.08 in 29.85 in -
Precipitation: 0.00 in    
Historical Graphs
 
 
Tabular Data for February 22, 2017
Time Temperature Dew Point Pressure Wind Wind Speed Wind Gust Humidity Rainfall Rate (Hourly)
00:02 41.1 °F 36.9 °F 30.08 in SSW 3.9 mph 4.6 mph 85 % 0.00 in
00:07 41.2 °F 37.0 °F 30.08 in SW 4.9 mph 6.9 mph 85 % 0.00 in
00:12 41.2 °F 37.0 °F 30.08 in SSW 3.4 mph 4.6 mph 85 % 0.00 in
00:17 41.3 °F 37.1 °F 30.08 in SSW 3.2 mph 11.5 mph 85 % 0.00 in
00:22 41.4 °F 37.2 °F 30.08 in SSW 4.7 mph 9.2 mph 85 % 0.00 in
00:27 41.5 °F 37.3 °F 30.07 in SSW 4.1 mph 6.9 mph 85 % 0.00 in
00:32 41.6 °F 37.4 °F 30.07 in SSW 3.6 mph 5.8 mph 85 % 0.00 in
00:37 41.6 °F 37.4 °F 30.07 in SW 2.3 mph 8.0 mph 85 % 0.00 in
00:42 41.6 °F 37.4 °F 30.07 in WSW 3.3 mph 6.9 mph 85 % 0.00 in
00:47 41.6 °F 37.4 °F 30.07 in WSW 6.3 mph 11.5 mph 85 % 0.00 in
00:52 41.7 °F 37.5 °F 30.06 in SSW 5.4 mph 6.9 mph 85 % 0.00 in
00:57 41.8 °F 37.6 °F 30.07 in South 2.1 mph 4.6 mph 85 % 0.00 in
01:02 41.8 °F 37.6 °F 30.07 in SW 6.1 mph 8.1 mph 85 % 0.00 in
01:07 41.8 °F 37.6 °F 30.06 in SSW 5.5 mph 8.1 mph 85 % 0.00 in
01:12 41.9 °F 37.7 °F 30.06 in SW 2.0 mph 4.0 mph 85 % 0.00 in
01:18 41.9 °F 37.7 °F 30.06 in WSW 1.5 mph 4.6 mph 85 % 0.00 in
01:23 42.0 °F 37.8 °F 30.06 in SW 2.7 mph 4.0 mph 85 % 0.00 in
01:28 42.0 °F 37.8 °F 30.05 in SSW 3.2 mph 5.8 mph 85 % 0.00 in
01:33 42.0 °F 37.8 °F 30.05 in SSW 3.9 mph 5.8 mph 85 % 0.00 in
01:38 42.1 °F 37.9 °F 30.05 in SSW 3.7 mph 5.8 mph 85 % 0.00 in
01:43 42.1 °F 37.6 °F 30.04 in SW 5.8 mph 8.1 mph 84 % 0.00 in
01:48 42.2 °F 37.7 °F 30.04 in SSW 2.8 mph 7.0 mph 84 % 0.00 in
01:53 42.2 °F 37.7 °F 30.04 in SSW 2.2 mph 6.9 mph 84 % 0.00 in
01:58 42.2 °F 37.7 °F 30.03 in WSW 3.9 mph 4.6 mph 84 % 0.00 in
02:03 42.2 °F 37.7 °F 30.04 in SW 2.1 mph 3.5 mph 84 % 0.00 in
02:08 42.2 °F 37.7 °F 30.04 in WSW 0.7 mph 2.3 mph 84 % 0.00 in
02:13 42.2 °F 37.7 °F 30.04 in WSW 3.9 mph 6.0 mph 84 % 0.00 in
02:18 42.3 °F 37.8 °F 30.04 in SW 2.3 mph 5.8 mph 84 % 0.00 in
02:23 42.3 °F 37.8 °F 30.04 in SW 3.0 mph 7.0 mph 84 % 0.00 in
02:28 42.3 °F 37.8 °F 30.04 in SW 1.0 mph 4.0 mph 84 % 0.00 in
02:33 42.3 °F 37.8 °F 30.04 in SW 3.0 mph 7.0 mph 84 % 0.00 in
02:38 42.4 °F 37.9 °F 30.04 in SW 3.5 mph 4.6 mph 84 % 0.00 in
02:43 42.4 °F 37.9 °F 30.04 in SW 2.0 mph 7.0 mph 84 % 0.00 in
02:48 42.5 °F 38.0 °F 30.05 in WSW 2.0 mph 5.0 mph 84 % 0.00 in
02:53 42.5 °F 38.0 °F 30.05 in Calm   3.0 mph 84 % 0.00 in
02:58 42.5 °F 38.0 °F 30.06 in SW 0.6 mph 3.0 mph 84 % 0.00 in
03:03 42.5 °F 38.0 °F 30.05 in Calm   3.0 mph 84 % 0.00 in
03:08 42.5 °F 38.0 °F 30.05 in Calm   2.0 mph 84 % 0.00 in
03:13 42.6 °F 38.1 °F 30.05 in Calm   2.0 mph 84 % 0.00 in
03:18 42.6 °F 38.1 °F 30.05 in SW 1.0 mph 3.0 mph 84 % 0.00 in
03:23 42.6 °F 37.8 °F 30.05 in Calm   2.0 mph 83 % 0.00 in
03:28 42.6 °F 38.1 °F 30.05 in Calm     84 % 0.00 in
03:33 42.6 °F 37.8 °F 30.05 in Calm     83 % 0.00 in
03:38 42.6 °F 37.8 °F 30.04 in SW 0.2 mph 2.0 mph 83 % 0.00 in
03:43 42.6 °F 37.8 °F 30.04 in Calm   2.0 mph 83 % 0.00 in
03:48 42.6 °F 37.8 °F 30.04 in Calm   2.0 mph 83 % 0.00 in
03:53 42.6 °F 37.8 °F 30.04 in Calm   3.0 mph 83 % 0.00 in
03:58 42.5 °F 38.0 °F 30.04 in SW 2.4 mph 6.0 mph 84 % 0.00 in
04:03 42.5 °F 38.0 °F 30.04 in SW 2.0 mph 6.0 mph 84 % 0.00 in
04:08 42.5 °F 38.0 °F 30.04 in SSW 2.0 mph 5.0 mph 84 % 0.00 in
04:13 42.5 °F 38.0 °F 30.03 in SSW 1.0 mph 4.0 mph 84 % 0.00 in
04:18 42.5 °F 38.0 °F 30.03 in Calm   4.0 mph 84 % 0.00 in
04:23 42.5 °F 38.0 °F 30.02 in SSW 1.0 mph 7.0 mph 84 % 0.00 in
04:28 42.6 °F 38.1 °F 30.02 in SW 1.4 mph 5.8 mph 84 % 0.00 in
04:33 42.6 °F 38.1 °F 30.02 in SW 1.0 mph 6.0 mph 84 % 0.00 in
04:38 42.6 °F 38.1 °F 30.02 in SW 1.0 mph 4.0 mph 84 % 0.00 in
04:43 42.6 °F 37.8 °F 30.02 in SSW 3.0 mph 5.0 mph 83 % 0.00 in
04:48 42.6 °F 38.1 °F 30.02 in SW 1.2 mph 3.5 mph 84 % 0.00 in
04:49 42.6 °F 37.8 °F 30.02 in SW 0.4 mph 3.5 mph 83 % 0.00 in
04:54 42.6 °F 37.8 °F 30.02 in SSW 1.7 mph 3.0 mph 83 % 0.00 in
04:59 42.6 °F 37.8 °F 30.02 in SW 0.8 mph 3.5 mph 83 % 0.00 in
05:04 42.6 °F 37.8 °F 30.03 in SSW 0.7 mph 1.2 mph 83 % 0.00 in
05:09 42.6 °F 37.8 °F 30.02 in SSW 1.0 mph 2.3 mph 83 % 0.00 in
05:14 42.6 °F 37.8 °F 30.02 in WSW 1.1 mph 3.5 mph 83 % 0.00 in
05:19 42.6 °F 37.8 °F 30.03 in SSW 2.9 mph 3.5 mph 83 % 0.00 in
05:25 42.6 °F 37.8 °F 30.03 in SW 1.0 mph 3.5 mph 83 % 0.00 in
05:30 42.6 °F 37.8 °F 30.03 in SSW 3.0 mph 4.6 mph 83 % 0.00 in
05:35 42.6 °F 37.8 °F 30.03 in SSW 1.1 mph 4.0 mph 83 % 0.00 in
05:40 42.6 °F 37.8 °F 30.03 in SW 1.1 mph 3.5 mph 83 % 0.00 in
05:45 42.7 °F 37.6 °F 30.03 in SW 3.7 mph 5.8 mph 82 % 0.00 in
05:50 42.7 °F 37.6 °F 30.03 in SW 1.5 mph 3.5 mph 82 % 0.00 in
05:55 42.7 °F 37.6 °F 30.03 in WSW 3.0 mph 3.5 mph 82 % 0.00 in
06:00 42.7 °F 37.6 °F 30.02 in SSW 1.4 mph 3.5 mph 82 % 0.00 in
06:05 42.7 °F 37.6 °F 30.02 in SSW 5.0 mph 5.8 mph 82 % 0.00 in
06:10 42.7 °F 37.6 °F 30.02 in WSW 4.2 mph 6.9 mph 82 % 0.00 in
06:15 42.7 °F 37.6 °F 30.02 in SW 0.8 mph 3.5 mph 82 % 0.00 in
06:20 42.8 °F 37.7 °F 30.02 in WSW 1.1 mph 6.9 mph 82 % 0.00 in
06:25 42.8 °F 37.7 °F 30.02 in WSW 3.7 mph 6.9 mph 82 % 0.00 in
06:30 42.8 °F 37.7 °F 30.02 in SSW 3.3 mph 4.6 mph 82 % 0.00 in
06:35 42.8 °F 37.7 °F 30.02 in SSW 2.4 mph 6.9 mph 82 % 0.00 in
06:40 42.9 °F 37.8 °F 30.01 in SSW 0.7 mph 3.5 mph 82 % 0.00 in
06:45 42.9 °F 37.8 °F 30.02 in WSW 1.9 mph 3.5 mph 82 % 0.00 in
06:50 42.9 °F 37.8 °F 30.02 in SW 1.2 mph 3.5 mph 82 % 0.00 in
06:55 43.0 °F 37.9 °F 30.02 in WSW 0.7 mph 2.0 mph 82 % 0.00 in
07:00 43.0 °F 37.9 °F 30.02 in WSW 0.1 mph 1.0 mph 82 % 0.00 in
07:05 43.0 °F 37.9 °F 30.02 in SW 1.0 mph 3.5 mph 82 % 0.00 in
07:10 43.0 °F 37.9 °F 30.02 in SW 2.3 mph 3.5 mph 82 % 0.00 in
07:15 43.1 °F 38.0 °F 30.02 in SW 0.1 mph 1.0 mph 82 % 0.00 in
07:21 43.1 °F 38.0 °F 30.02 in SW 2.2 mph 4.0 mph 82 % 0.00 in
07:26 43.1 °F 38.0 °F 30.02 in SW 0.5 mph 2.3 mph 82 % 0.00 in
07:31 43.2 °F 38.1 °F 30.02 in Calm   1.2 mph 82 % 0.00 in
07:32 43.2 °F 38.1 °F 30.02 in SW 0.3 mph   82 % 0.00 in
07:37 43.2 °F 38.1 °F 30.02 in SW 3.1 mph 4.6 mph 82 % 0.00 in
07:42 43.2 °F 38.1 °F 30.02 in SW 0.2 mph 3.5 mph 82 % 0.00 in
07:47 43.3 °F 38.2 °F 30.02 in SW 1.9 mph 3.5 mph 82 % 0.00 in
07:52 43.3 °F 38.2 °F 30.02 in SW 0.4 mph 2.3 mph 82 % 0.00 in
07:57 43.4 °F 38.3 °F 30.02 in SW 2.0 mph 3.5 mph 82 % 0.00 in
08:02 43.5 °F 38.4 °F 30.02 in SSW 0.1 mph 1.2 mph 82 % 0.00 in
08:07 43.5 °F 38.4 °F 30.02 in SW 0.6 mph 1.2 mph 82 % 0.00 in
08:12 43.6 °F 38.5 °F 30.02 in SW 2.0 mph 3.5 mph 82 % 0.00 in
08:17 43.7 °F 38.6 °F 30.02 in Calm   3.5 mph 82 % 0.00 in
08:22 43.8 °F 38.7 °F 30.02 in WSW 0.4 mph 2.3 mph 82 % 0.00 in
08:27 43.9 °F 38.8 °F 30.02 in SSW 2.0 mph 4.6 mph 82 % 0.00 in
08:32 44.0 °F 38.9 °F 30.02 in WNW 1.5 mph 3.5 mph 82 % 0.00 in
08:37 44.1 °F 39.0 °F 30.01 in SW 1.2 mph 3.5 mph 82 % 0.00 in
08:42 44.2 °F 39.4 °F 30.01 in SW 2.8 mph 4.6 mph 83 % 0.00 in
08:48 44.4 °F 39.6 °F 30.01 in SW 3.7 mph 6.0 mph 83 % 0.00 in
08:53 44.5 °F 39.7 °F 30.01 in SW 1.3 mph 3.0 mph 83 % 0.00 in
08:58 44.7 °F 40.2 °F 30.01 in WSW 2.6 mph 5.8 mph 84 % 0.00 in
09:03 44.9 °F 40.0 °F 30.01 in SW 4.3 mph 6.9 mph 83 % 0.00 in
09:08 45.1 °F 40.2 °F 30.01 in SW 3.3 mph 5.8 mph 83 % 0.00 in
09:13 45.3 °F 40.4 °F 30.01 in SSW 3.1 mph 4.6 mph 83 % 0.00 in
09:18 45.6 °F 40.4 °F 30.01 in SSW 4.1 mph 5.8 mph 82 % 0.00 in
09:23 45.7 °F 40.5 °F 30.01 in WSW 2.3 mph 4.6 mph 82 % 0.00 in
09:28 46.0 °F 40.8 °F 30.01 in South 1.1 mph 2.0 mph 82 % 0.00 in
09:33 46.2 °F 41.0 °F 30.00 in SW 2.2 mph 3.5 mph 82 % 0.00 in
09:38 46.5 °F 41.3 °F 30.00 in WNW 1.1 mph 4.0 mph 82 % 0.00 in
09:43 46.8 °F 41.3 °F 30.00 in West 3.5 mph 6.0 mph 81 % 0.00 in
09:48 47.0 °F 41.1 °F 30.00 in WSW 3.0 mph 6.0 mph 80 % 0.00 in
09:53 47.2 °F 41.0 °F 30.00 in WSW 3.0 mph 5.0 mph 79 % 0.00 in
09:58 47.4 °F 40.9 °F 30.00 in West 1.6 mph 4.6 mph 78 % 0.00 in
10:03 47.6 °F 41.1 °F 30.00 in NW 1.6 mph 3.5 mph 78 % 0.00 in
10:08 47.7 °F 40.8 °F 30.00 in West 2.2 mph 4.6 mph 77 % 0.00 in
10:13 47.7 °F 40.8 °F 30.00 in WNW 0.7 mph 3.0 mph 77 % 0.00 in
10:18 47.8 °F 40.9 °F 29.99 in WNW 0.5 mph 2.0 mph 77 % 0.00 in
10:23 47.8 °F 40.9 °F 29.99 in WNW 0.4 mph 3.5 mph 77 % 0.00 in
10:28 47.9 °F 41.0 °F 29.99 in WNW 0.3 mph 1.2 mph 77 % 0.00 in
10:33 47.9 °F 40.7 °F 29.99 in WNW 0.7 mph 2.3 mph 76 % 0.00 in
10:38 48.0 °F 41.1 °F 29.99 in West 3.0 mph 5.0 mph 77 % 0.00 in
10:43 48.1 °F 41.2 °F 29.99 in West 0.3 mph 2.3 mph 77 % 0.00 in
10:49 48.1 °F 40.9 °F 29.98 in WSW 1.6 mph 4.0 mph 76 % 0.00 in
10:54 48.1 °F 40.5 °F 29.98 in WSW 1.1 mph 4.0 mph 75 % 0.00 in
10:59 48.1 °F 40.5 °F 29.98 in Calm   2.3 mph 75 % 0.00 in
11:04 48.1 °F 40.9 °F 29.98 in West 2.2 mph 3.5 mph 76 % 0.00 in
11:09 48.2 °F 41.0 °F 29.98 in WSW 3.1 mph 6.9 mph 76 % 0.00 in
11:14 48.1 °F 40.9 °F 29.98 in SW 3.6 mph 8.1 mph 76 % 0.00 in
11:19 48.2 °F 41.3 °F 29.98 in West 1.0 mph 3.5 mph 77 % 0.00 in
11:24 48.2 °F 41.3 °F 29.97 in West 2.0 mph 3.5 mph 77 % 0.00 in
11:29 48.2 °F 42.0 °F 29.97 in WSW 1.9 mph 2.3 mph 79 % 0.00 in
11:34 48.2 °F 42.3 °F 29.97 in West 0.2 mph 1.2 mph 80 % 0.00 in
11:39 48.2 °F 42.3 °F 29.97 in NW 1.2 mph 1.2 mph 80 % 0.00 in
11:44 48.1 °F 42.2 °F 29.97 in WNW 3.0 mph 3.5 mph 80 % 0.00 in
11:49 47.9 °F 42.3 °F 29.97 in WNW 0.9 mph 3.5 mph 81 % 0.00 in
11:54 47.8 °F 42.3 °F 29.96 in WNW 0.8 mph 2.3 mph 81 % 0.00 in
11:59 47.8 °F 42.6 °F 29.96 in WNW 1.8 mph 3.5 mph 82 % 0.00 in
12:04 47.8 °F 42.6 °F 29.95 in WNW 2.9 mph 3.5 mph 82 % 0.00 in
12:09 47.9 °F 42.7 °F 29.95 in WNW 1.1 mph 3.5 mph 82 % 0.00 in
12:14 48.0 °F 42.4 °F 29.95 in WNW 2.5 mph 3.5 mph 81 % 0.00 in
12:19 48.0 °F 42.1 °F 29.94 in WNW 2.4 mph 3.5 mph 80 % 0.00 in
12:24 48.1 °F 41.9 °F 29.94 in WNW 1.8 mph 4.0 mph 79 % 0.00 in
12:25 48.1 °F 41.9 °F 29.94 in WNW 1.9 mph 2.3 mph 79 % 0.00 in
12:30 48.1 °F 41.9 °F 29.94 in NW 0.6 mph 3.5 mph 79 % 0.00 in
12:35 48.1 °F 41.9 °F 29.94 in NW 1.9 mph 2.3 mph 79 % 0.00 in
12:40 48.0 °F 41.8 °F 29.94 in NW 0.8 mph 3.5 mph 79 % 0.00 in
12:45 48.1 °F 41.9 °F 29.94 in NW 0.6 mph 2.0 mph 79 % 0.00 in
12:50 48.2 °F 42.0 °F 29.93 in WNW 0.1 mph 1.2 mph 79 % 0.00 in
12:55 48.3 °F 41.8 °F 29.93 in WNW 1.2 mph 3.5 mph 78 % 0.00 in
13:00 48.5 °F 42.0 °F 29.93 in NW 0.6 mph 3.5 mph 78 % 0.00 in
13:05 48.7 °F 41.8 °F 29.93 in Calm   1.2 mph 77 % 0.00 in
13:10 48.7 °F 41.8 °F 29.92 in Calm     77 % 0.00 in
13:15 49.0 °F 42.4 °F 29.92 in Calm     78 % 0.00 in
13:20 49.1 °F 41.9 °F 29.91 in Calm     76 % 0.00 in
13:25 49.3 °F 42.4 °F 29.91 in Calm     77 % 0.00 in
13:30 49.5 °F 42.2 °F 29.91 in NW 0.7 mph 2.3 mph 76 % 0.00 in
13:35 49.8 °F 42.2 °F 29.90 in NW 0.4 mph 1.2 mph 75 % 0.00 in
13:40 49.8 °F 42.2 °F 29.90 in NNW 1.1 mph 2.3 mph 75 % 0.00 in
13:46 49.9 °F 42.3 °F 29.90 in NNW 1.3 mph 2.3 mph 75 % 0.00 in
13:51 50.2 °F 42.9 °F 29.89 in NE 1.9 mph 2.3 mph 76 % 0.00 in
13:56 50.5 °F 42.9 °F 29.89 in NE 0.9 mph 3.5 mph 75 % 0.00 in
14:01 51.0 °F 43.0 °F 29.89 in NNE 1.7 mph 3.5 mph 74 % 0.00 in
14:06 51.3 °F 43.3 °F 29.88 in ENE 2.6 mph 3.5 mph 74 % 0.00 in
14:11 51.4 °F 43.0 °F 29.88 in NE 1.7 mph 3.5 mph 73 % 0.00 in
14:16 51.5 °F 42.8 °F 29.88 in NE 1.4 mph 3.5 mph 72 % 0.00 in
14:21 51.5 °F 42.8 °F 29.88 in NNE 3.5 mph 4.0 mph 72 % 0.00 in
14:26 51.3 °F 41.8 °F 29.88 in NNE 2.9 mph 4.6 mph 70 % 0.00 in
14:31 51.1 °F 42.0 °F 29.88 in NNE 1.9 mph 3.5 mph 71 % 0.00 in
14:36 50.9 °F 42.2 °F 29.88 in North 1.3 mph 3.5 mph 72 % 0.00 in
14:41 50.6 °F 41.5 °F 29.88 in NNE 2.9 mph 4.6 mph 71 % 0.00 in
14:46 50.3 °F 41.3 °F 29.88 in North 2.1 mph 3.5 mph 71 % 0.00 in
14:51 50.0 °F 41.0 °F 29.88 in North 1.0 mph 3.5 mph 71 % 0.00 in
14:56 49.9 °F 40.9 °F 29.89 in North 2.3 mph 3.5 mph 71 % 0.00 in
15:01 49.7 °F 40.7 °F 29.89 in NNE 1.6 mph 3.5 mph 71 % 0.00 in
15:06 49.6 °F 40.6 °F 29.89 in North 2.2 mph 5.0 mph 71 % 0.00 in
15:11 49.4 °F 40.4 °F 29.89 in NNW 1.6 mph 3.5 mph 71 % 0.00 in
15:16 49.2 °F 40.6 °F 29.89 in North 2.8 mph 3.5 mph 72 % 0.00 in
15:21 49.1 °F 40.5 °F 29.89 in North 2.3 mph 3.5 mph 72 % 0.00 in
15:26 49.0 °F 40.4 °F 29.89 in North 1.9 mph 3.5 mph 72 % 0.00 in
15:31 49.1 °F 40.5 °F 29.89 in NNW 1.7 mph 3.5 mph 72 % 0.00 in
15:37 49.1 °F 40.1 °F 29.88 in NNW 1.3 mph 3.5 mph 71 % 0.00 in
15:42 49.2 °F 40.6 °F 29.89 in NNW 0.5 mph 1.2 mph 72 % 0.00 in
15:47 49.4 °F 40.7 °F 29.89 in NNW 0.5 mph 2.3 mph 72 % 0.00 in
15:52 49.5 °F 40.8 °F 29.89 in NNW 0.4 mph 1.2 mph 72 % 0.00 in
15:57 49.7 °F 41.0 °F 29.88 in NNW 1.2 mph 2.3 mph 72 % 0.00 in
16:02 49.9 °F 41.2 °F 29.88 in Calm     72 % 0.00 in
16:07 50.0 °F 41.0 °F 29.88 in Calm   1.2 mph 71 % 0.00 in
16:12 50.0 °F 41.0 °F 29.88 in Calm     71 % 0.00 in
16:17 50.1 °F 41.1 °F 29.88 in Calm     71 % 0.00 in
16:22 50.2 °F 41.5 °F 29.89 in Calm     72 % 0.00 in
16:27 50.2 °F 41.5 °F 29.89 in Calm   1.2 mph 72 % 0.00 in
16:32 50.3 °F 41.3 °F 29.89 in NNW 0.4 mph 1.2 mph 71 % 0.00 in
16:37 50.2 °F 40.8 °F 29.89 in Calm   1.2 mph 70 % 0.00 in
16:39 50.2 °F 41.2 °F 29.89 in NNW 0.2 mph 1.2 mph 71 % 0.00 in
16:44 50.2 °F 41.2 °F 29.89 in Calm   1.2 mph 71 % 0.00 in
16:49 50.2 °F 41.2 °F 29.89 in Calm     71 % 0.00 in
16:54 50.1 °F 41.4 °F 29.89 in Calm   1.2 mph 72 % 0.00 in
16:59 50.1 °F 41.8 °F 29.89 in Calm     73 % 0.00 in
17:04 50.1 °F 41.4 °F 29.89 in Calm     72 % 0.00 in
17:09 50.0 °F 41.7 °F 29.89 in Calm     73 % 0.00 in
17:14 49.9 °F 41.6 °F 29.89 in Calm     73 % 0.00 in
17:19 49.9 °F 41.6 °F 29.89 in Calm     73 % 0.00 in
17:24 49.8 °F 41.5 °F 29.89 in Calm     73 % 0.00 in
17:29 49.7 °F 41.4 °F 29.89 in Calm     73 % 0.00 in
17:34 49.6 °F 41.3 °F 29.89 in Calm     73 % 0.00 in
17:39 49.6 °F 41.3 °F 29.89 in Calm     73 % 0.00 in
17:44 49.5 °F 41.6 °F 29.89 in Calm     74 % 0.00 in
17:49 49.4 °F 41.5 °F 29.89 in Calm     74 % 0.00 in
17:54 49.3 °F 41.4 °F 29.88 in Calm     74 % 0.00 in
17:59 49.3 °F 41.4 °F 29.89 in Calm     74 % 0.00 in
18:04 49.2 °F 41.6 °F 29.89 in Calm     75 % 0.00 in
18:09 49.2 °F 41.6 °F 29.88 in Calm     75 % 0.00 in
18:15 49.1 °F 41.5 °F 29.88 in Calm     75 % 0.00 in
18:20 49.0 °F 41.8 °F 29.88 in Calm     76 % 0.00 in
18:25 48.9 °F 41.7 °F 29.88 in Calm     76 % 0.00 in
18:30 48.9 °F 41.7 °F 29.88 in Calm     76 % 0.00 in
18:35 48.8 °F 41.9 °F 29.88 in Calm     77 % 0.00 in
18:40 48.8 °F 41.6 °F 29.88 in Calm     76 % 0.00 in
18:45 48.7 °F 41.5 °F 29.88 in Calm     76 % 0.00 in
18:50 48.7 °F 41.5 °F 29.88 in Calm     76 % 0.00 in
18:55 48.6 °F 41.7 °F 29.88 in Calm     77 % 0.00 in
19:00 48.5 °F 41.6 °F 29.88 in Calm     77 % 0.00 in
19:05 48.3 °F 41.4 °F 29.88 in NNW 0.4 mph 1.2 mph 77 % 0.00 in
19:10 48.3 °F 41.4 °F 29.88 in Calm     77 % 0.00 in
19:15 48.2 °F 41.7 °F 29.88 in Calm     78 % 0.00 in
19:21 48.2 °F 42.0 °F 29.88 in Calm     79 % 0.00 in
19:26 48.1 °F 41.9 °F 29.88 in West 1.0 mph 2.3 mph 79 % 0.00 in
19:31 48.0 °F 42.1 °F 29.88 in West 0.2 mph 1.2 mph 80 % 0.00 in
19:36 48.0 °F 42.1 °F 29.88 in Calm     80 % 0.00 in
19:41 47.9 °F 42.0 °F 29.88 in Calm     80 % 0.00 in
19:46 47.8 °F 41.9 °F 29.88 in Calm     80 % 0.00 in
19:51 47.7 °F 41.8 °F 29.88 in Calm     80 % 0.00 in
19:56 47.7 °F 42.2 °F 29.88 in Calm     81 % 0.00 in
20:01 47.6 °F 42.1 °F 29.88 in Calm     81 % 0.00 in
20:06 47.5 °F 42.3 °F 29.88 in Calm     82 % 0.00 in
20:11 47.4 °F 42.2 °F 29.88 in Calm     82 % 0.00 in
20:16 47.2 °F 42.0 °F 29.88 in Calm     82 % 0.00 in
20:21 47.1 °F 42.2 °F 29.88 in Calm     83 % 0.00 in
20:26 46.9 °F 42.0 °F 29.88 in Calm     83 % 0.00 in
20:31 46.8 °F 41.9 °F 29.88 in Calm     83 % 0.00 in
20:36 46.6 °F 41.4 °F 29.88 in Calm     82 % 0.00 in
20:41 46.4 °F 41.2 °F 29.88 in Calm     82 % 0.00 in
20:46 46.2 °F 41.0 °F 29.88 in Calm     82 % 0.00 in
20:51 46.1 °F 40.9 °F 29.88 in Calm     82 % 0.00 in
20:52 46.0 °F 40.8 °F 29.88 in Calm     82 % 0.00 in
20:57 45.9 °F 41.0 °F 29.88 in Calm     83 % 0.00 in
21:02 45.7 °F 41.1 °F 29.88 in Calm     84 % 0.00 in
21:07 45.6 °F 41.0 °F 29.89 in Calm     84 % 0.00 in
21:12 45.4 °F 41.2 °F 29.88 in Calm     85 % 0.00 in
21:17 45.2 °F 41.0 °F 29.88 in Calm     85 % 0.00 in
21:22 45.1 °F 40.9 °F 29.88 in Calm   1.2 mph 85 % 0.00 in
21:27 44.9 °F 40.7 °F 29.88 in Calm     85 % 0.00 in
21:32 44.7 °F 40.5 °F 29.88 in Calm     85 % 0.00 in
21:37 44.6 °F 40.4 °F 29.88 in Calm     85 % 0.00 in
21:42 44.4 °F 40.2 °F 29.88 in Calm     85 % 0.00 in
21:47 44.3 °F 40.4 °F 29.87 in Calm     86 % 0.00 in
21:52 44.2 °F 40.3 °F 29.87 in Calm   1.2 mph 86 % 0.00 in
21:57 44.0 °F 40.1 °F 29.87 in Calm     86 % 0.00 in
22:02 43.9 °F 40.3 °F 29.87 in Calm     87 % 0.00 in
22:08 43.8 °F 40.2 °F 29.87 in West 0.7 mph 1.2 mph 87 % 0.00 in
22:13 43.7 °F 40.1 °F 29.87 in West 0.1 mph 1.2 mph 87 % 0.00 in
22:18 43.6 °F 40.3 °F 29.87 in Calm     88 % 0.00 in
22:23 43.5 °F 40.2 °F 29.87 in Calm     88 % 0.00 in
22:28 43.4 °F 40.1 °F 29.87 in Calm     88 % 0.00 in
22:33 43.3 °F 40.0 °F 29.86 in Calm     88 % 0.00 in
22:38 43.3 °F 40.0 °F 29.86 in Calm     88 % 0.00 in
22:43 43.2 °F 39.9 °F 29.86 in Calm     88 % 0.00 in
22:48 43.1 °F 39.8 °F 29.87 in Calm     88 % 0.00 in
22:53 42.9 °F 39.6 °F 29.86 in West 0.4 mph 1.2 mph 88 % 0.00 in
22:58 42.7 °F 39.4 °F 29.86 in Calm     88 % 0.00 in
23:03 42.5 °F 39.2 °F 29.86 in Calm     88 % 0.00 in
23:08 42.3 °F 38.8 °F 29.86 in Calm     87 % 0.00 in
23:13 42.2 °F 38.6 °F 29.86 in Calm     87 % 0.00 in
23:18 42.0 °F 38.7 °F 29.85 in Calm     88 % 0.00 in
23:23 41.9 °F 38.9 °F 29.85 in Calm     89 % 0.00 in
23:28 41.8 °F 39.1 °F 29.86 in Calm     90 % 0.00 in
23:33 41.7 °F 39.3 °F 29.86 in Calm     91 % 0.00 in
23:38 41.7 °F 39.3 °F 29.86 in Calm     91 % 0.00 in
23:43 41.6 °F 39.2 °F 29.86 in West 1.0 mph 2.0 mph 91 % 0.00 in
23:48 41.5 °F 39.1 °F 29.85 in Calm   1.0 mph 91 % 0.00 in
23:53 41.5 °F 39.1 °F 29.85 in Calm   1.0 mph 91 % 0.00 in
23:58 41.4 °F 39.0 °F 29.85 in Calm   1.2 mph 91 % 0.00 in
Crab Meadow Weather
Compliments of Weather Underground - 3 mb

Script developed by  Jim McMurry - jmcmurry@mwt.net Adapted for the template by  Wim van der Kuil - Leuven-Template.eu

Heat Index: The heat index combines air temperature and dew point in an attempt to determine the human-perceived equivalent temperature - how hot it feels. The human body normally cools itself by sweating, which evaporates and carries heat away from the body. However, when the relative humidity is high the evaporation rate is reduced, so heat is removed from the body at a lower rate causing it to retain more heat than it would in dry air.